Time;durP1;ratioP1;P1;durP2;ratioP2;P2;SDS_P1;SDS_P2;PMS_P1;PMS_P2;Temp;Humidity;BMP_temperature;BMP_pressure;BME280_temperature;BME280_humidity;BME280_pressure;Samples;Min_cycle;Max_cycle;Signal;HPM_P1;HPM_P2
2021/10/16 00:01:40;;;;;;;;;;;11.40;50.00;;;;;;4373951;32;20005;-39
2021/10/16 00:04:06;;;;;;;;;;;11.40;50.00;;;;;;4360215;32;19992;-39
2021/10/16 00:06:32;;;;;;;;;;;11.40;50.00;;;;;;4374561;32;20046;-39
2021/10/16 00:08:58;;;;;;;;;;;11.40;50.00;;;;;;4373852;32;20048;-38
2021/10/16 00:11:25;;;;;;;;;;;11.30;49.90;;;;;;4374510;32;20058;-38
2021/10/16 00:13:51;;;;;;;;;;;11.30;49.90;;;;;;4373954;32;20069;-39
2021/10/16 00:16:17;;;;;;;;;;;11.30;50.10;;;;;;4374085;32;19970;-37
2021/10/16 00:18:43;;;;;;;;;;;11.30;50.30;;;;;;4373984;32;19950;-37
2021/10/16 00:21:10;;;;;;;;;;;11.20;50.30;;;;;;4359987;32;19954;-38
2021/10/16 00:23:36;;;;;;;;;;;11.20;50.30;;;;;;4373713;32;20391;-39
2021/10/16 00:26:02;;;;;;;;;;;11.20;50.30;;;;;;4373845;32;19966;-39
2021/10/16 00:28:28;;;;;;;;;;;11.20;50.10;;;;;;4373841;32;19954;-38
2021/10/16 00:30:54;;;;;;;;;;;11.20;50.10;;;;;;4373501;32;19974;-39
2021/10/16 00:33:21;;;;;;;;;;;11.20;50.10;;;;;;4373955;32;19969;-38
2021/10/16 00:35:47;;;;;;;;;;;11.20;50.10;;;;;;4374334;32;19969;-39
2021/10/16 00:38:13;;;;;;;;;;;11.20;50.00;;;;;;4373921;32;20113;-39
2021/10/16 00:40:39;;;;;;;;;;;11.10;49.90;;;;;;4373653;32;19965;-37
2021/10/16 00:43:05;;;;;;;;;;;11.20;49.80;;;;;;4373965;32;19962;-38
2021/10/16 00:45:32;;;;;;;;;;;11.10;49.80;;;;;;4356414;32;19970;-39
2021/10/16 00:47:58;;;;;;;;;;;11.10;49.70;;;;;;4358334;32;20375;-39
2021/10/16 00:50:24;;;;;;;;;;;11.10;49.70;;;;;;4358222;32;20005;-38
2021/10/16 00:52:51;;;;;;;;;;;11.10;49.70;;;;;;4358697;32;19967;-38
2021/10/16 00:55:18;;;;;;;;;;;11.10;49.70;;;;;;4358906;32;20147;-38
2021/10/16 00:57:45;;;;;;;;;;;11.00;49.80;;;;;;4345502;32;19985;-39
2021/10/16 01:00:12;;;;;;;;;;;11.00;50.50;;;;;;4358330;32;20014;-38
2021/10/16 01:02:38;;;;;;;;;;;11.00;49.90;;;;;;4358393;32;20458;-39
2021/10/16 01:05:05;;;;;;;;;;;11.00;49.90;;;;;;4344351;32;20409;-38
2021/10/16 01:07:31;;;;;;;;;;;10.90;49.90;;;;;;4358641;32;19958;-39
2021/10/16 01:09:57;;;;;;;;;;;10.90;50.00;;;;;;4344775;32;19978;-38
2021/10/16 01:12:24;;;;;;;;;;;10.90;50.10;;;;;;4358814;32;19976;-39
2021/10/16 01:14:57;;;;;;;;;;;10.90;50.20;;;;;;4358486;32;19966;-38
2021/10/16 01:17:24;;;;;;;;;;;10.90;50.20;;;;;;4358431;32;19970;-39
2021/10/16 01:19:54;;;;;;;;;;;10.90;50.40;;;;;;4344448;32;19983;-38
2021/10/16 01:22:20;;;;;;;;;;;10.90;50.40;;;;;;4344976;32;20409;-39
2021/10/16 01:24:50;;;;;;;;;;;10.90;50.50;;;;;;4332591;32;20048;-40
2021/10/16 01:27:16;;;;;;;;;;;10.90;50.50;;;;;;4345045;32;20037;-40
2021/10/16 01:29:42;;;;;;;;;;;10.90;50.50;;;;;;4344651;32;19978;-38
2021/10/16 01:32:08;;;;;;;;;;;10.90;50.50;;;;;;4358629;32;20064;-39
2021/10/16 01:34:34;;;;;;;;;;;10.90;50.50;;;;;;4344505;32;19993;-39
2021/10/16 01:37:01;;;;;;;;;;;10.90;50.50;;;;;;4358580;32;19974;-38
2021/10/16 01:39:29;;;;;;;;;;;10.90;50.40;;;;;;4358634;32;19966;-38
2021/10/16 01:41:55;;;;;;;;;;;11.00;50.50;;;;;;4358380;32;19975;-39
2021/10/16 01:44:21;;;;;;;;;;;10.90;50.50;;;;;;4358041;32;19974;-37
2021/10/16 01:46:48;;;;;;;;;;;10.90;50.40;;;;;;4340942;32;20351;-38
2021/10/16 01:49:18;;;;;;;;;;;10.90;50.30;;;;;;4358466;32;19978;-39
2021/10/16 01:51:46;;;;;;;;;;;10.90;50.30;;;;;;4356964;32;20488;-38
2021/10/16 01:54:12;;;;;;;;;;;10.90;50.30;;;;;;4358335;32;20067;-39
2021/10/16 01:56:38;;;;;;;;;;;10.90;50.30;;;;;;4328447;33;19983;-39
2021/10/16 01:59:14;;;;;;;;;;;10.90;50.30;;;;;;4341398;33;20047;-39
2021/10/16 02:01:40;;;;;;;;;;;10.90;50.40;;;;;;4341033;33;20117;-39
2021/10/16 02:04:07;;;;;;;;;;;10.90;50.30;;;;;;4340856;32;19973;-39
2021/10/16 02:06:34;;;;;;;;;;;10.90;50.20;;;;;;4343904;33;19998;-38
2021/10/16 02:09:00;;;;;;;;;;;10.80;50.20;;;;;;4343444;33;20520;-38
2021/10/16 02:11:26;;;;;;;;;;;10.80;50.30;;;;;;4331722;33;19974;-37
2021/10/16 02:13:52;;;;;;;;;;;10.80;50.30;;;;;;4343484;33;19982;-38
2021/10/16 02:16:18;;;;;;;;;;;10.80;50.30;;;;;;4343393;33;20438;-39
2021/10/16 02:18:44;;;;;;;;;;;10.80;50.40;;;;;;4331036;33;20070;-39
2021/10/16 02:21:11;;;;;;;;;;;10.80;50.30;;;;;;4343425;33;19978;-39
2021/10/16 02:23:37;;;;;;;;;;;10.80;50.40;;;;;;4343355;33;20046;-38
2021/10/16 02:26:03;;;;;;;;;;;10.80;50.40;;;;;;4343076;33;20368;-40
2021/10/16 02:28:29;;;;;;;;;;;10.80;50.30;;;;;;4342755;33;20382;-39
2021/10/16 02:30:55;;;;;;;;;;;10.80;50.30;;;;;;4343349;33;20050;-39
2021/10/16 02:33:21;;;;;;;;;;;10.80;50.30;;;;;;4346774;32;20392;-39
2021/10/16 02:35:48;;;;;;;;;;;10.80;50.30;;;;;;4360557;32;19997;-39
2021/10/16 02:38:14;;;;;;;;;;;10.80;50.40;;;;;;4360503;32;19970;-39
2021/10/16 02:40:40;;;;;;;;;;;10.80;50.40;;;;;;4360465;32;19977;-39
2021/10/16 02:43:06;;;;;;;;;;;10.70;50.20;;;;;;4360261;32;19970;-38
2021/10/16 02:45:32;;;;;;;;;;;10.70;50.20;;;;;;4360188;32;20420;-39
2021/10/16 02:47:58;;;;;;;;;;;10.70;50.10;;;;;;4360515;32;19970;-38
2021/10/16 02:50:25;;;;;;;;;;;10.70;50.20;;;;;;4360666;32;20060;-39
2021/10/16 02:52:51;;;;;;;;;;;10.70;50.20;;;;;;4360832;32;19988;-38
2021/10/16 02:55:17;;;;;;;;;;;10.60;50.10;;;;;;4359830;32;19988;-39
2021/10/16 02:57:44;;;;;;;;;;;10.60;50.20;;;;;;4360090;32;20059;-39
2021/10/16 03:00:11;;;;;;;;;;;10.60;50.20;;;;;;4360321;32;20025;-39
2021/10/16 03:02:37;;;;;;;;;;;10.60;50.20;;;;;;4346049;32;20045;-39
2021/10/16 03:05:04;;;;;;;;;;;10.60;50.30;;;;;;4360138;32;20431;-39
2021/10/16 03:07:30;;;;;;;;;;;10.50;50.30;;;;;;4360346;32;19967;-39
2021/10/16 03:09:57;;;;;;;;;;;10.50;50.40;;;;;;4359738;32;20580;-38
2021/10/16 03:12:23;;;;;;;;;;;10.50;50.50;;;;;;4360305;32;19978;-38
2021/10/16 03:14:49;;;;;;;;;;;10.50;50.50;;;;;;4359896;32;20423;-38
2021/10/16 03:17:16;;;;;;;;;;;10.50;50.60;;;;;;4345305;32;19980;-39
2021/10/16 03:19:42;;;;;;;;;;;10.50;50.60;;;;;;4360166;32;20059;-39
2021/10/16 03:22:08;;;;;;;;;;;10.50;50.70;;;;;;4327233;33;19964;-39
2021/10/16 03:24:36;;;;;;;;;;;10.40;50.60;;;;;;4327573;33;19978;-39
2021/10/16 03:27:03;;;;;;;;;;;10.50;50.80;;;;;;4327956;33;19971;-38
2021/10/16 03:29:29;;;;;;;;;;;10.50;50.90;;;;;;4327474;33;20012;-38
2021/10/16 03:31:56;;;;;;;;;;;10.50;51.00;;;;;;4327786;33;19971;-38
2021/10/16 03:34:22;;;;;;;;;;;10.50;51.00;;;;;;4327515;33;19975;-39
2021/10/16 03:36:48;;;;;;;;;;;10.50;51.20;;;;;;4327622;33;20010;-38
2021/10/16 03:39:14;;;;;;;;;;;10.50;51.40;;;;;;4327238;33;20578;-38
2021/10/16 03:41:41;;;;;;;;;;;10.50;51.50;;;;;;4327455;33;19979;-39
2021/10/16 03:44:07;;;;;;;;;;;10.50;51.60;;;;;;4327626;33;20033;-40
2021/10/16 03:46:33;;;;;;;;;;;10.60;51.50;;;;;;4337070;33;20049;-38
2021/10/16 03:48:59;;;;;;;;;;;10.70;51.60;;;;;;4342109;33;20056;-38
2021/10/16 03:51:25;;;;;;;;;;;10.70;51.40;;;;;;4329829;33;20070;-38
2021/10/16 03:53:52;;;;;;;;;;;10.80;51.20;;;;;;4342185;33;20449;-41
2021/10/16 03:56:18;;;;;;;;;;;10.80;50.90;;;;;;4342288;33;19970;-38
2021/10/16 03:58:44;;;;;;;;;;;10.80;50.80;;;;;;4346855;32;19955;-39
2021/10/16 04:01:10;;;;;;;;;;;10.80;50.80;;;;;;4373966;32;19978;-39
2021/10/16 04:03:37;;;;;;;;;;;10.90;50.80;;;;;;4374458;32;19966;-39
2021/10/16 04:06:03;;;;;;;;;;;10.90;50.90;;;;;;4374206;32;20412;-39
2021/10/16 04:08:29;;;;;;;;;;;10.90;50.80;;;;;;4374292;32;19977;-39
2021/10/16 04:10:55;;;;;;;;;;;11.00;50.90;;;;;;4374088;32;20382;-39
2021/10/16 04:13:22;;;;;;;;;;;11.00;50.80;;;;;;4374283;32;20043;-38
2021/10/16 04:15:48;;;;;;;;;;;11.20;50.80;;;;;;4373721;32;20382;-39
2021/10/16 04:18:14;;;;;;;;;;;11.20;50.50;;;;;;4374190;32;20069;-38
2021/10/16 04:20:40;;;;;;;;;;;11.30;50.40;;;;;;4373920;32;19977;-39
2021/10/16 04:23:06;;;;;;;;;;;11.40;50.20;;;;;;4374261;32;20414;-38
2021/10/16 04:25:33;;;;;;;;;;;11.50;50.10;;;;;;4373989;32;19966;-39
2021/10/16 04:27:59;;;;;;;;;;;11.60;49.90;;;;;;4373661;32;20034;-39
2021/10/16 04:30:25;;;;;;;;;;;11.80;49.80;;;;;;4341124;33;19981;-39
2021/10/16 04:32:51;;;;;;;;;;;11.80;49.70;;;;;;4341204;33;19995;-38
2021/10/16 04:35:18;;;;;;;;;;;12.00;49.50;;;;;;4341618;33;19970;-39
2021/10/16 04:37:44;;;;;;;;;;;12.10;49.20;;;;;;4341246;33;20005;-41
2021/10/16 04:40:17;;;;;;;;;;;12.20;48.90;;;;;;4341466;33;20023;-39
2021/10/16 04:42:44;;;;;;;;;;;12.40;48.30;;;;;;4341599;33;20399;-39
2021/10/16 04:45:10;;;;;;;;;;;12.60;48.20;;;;;;4340290;33;20090;-38
2021/10/16 04:47:37;;;;;;;;;;;12.80;48.00;;;;;;4314607;33;20011;-39
2021/10/16 04:50:10;;;;;;;;;;;13.10;47.40;;;;;;4326489;33;20144;-39
2021/10/16 04:52:36;;;;;;;;;;;13.40;46.80;;;;;;4326736;33;20435;-38
2021/10/16 04:55:03;;;;;;;;;;;13.70;46.40;;;;;;4326567;33;20042;-38
2021/10/16 04:57:30;;;;;;;;;;;14.00;45.90;;;;;;4314345;33;19970;-40
2021/10/16 04:59:56;;;;;;;;;;;14.30;45.70;;;;;;4326580;33;19982;-39
2021/10/16 05:02:24;;;;;;;;;;;14.70;45.20;;;;;;4354619;32;20431;-39
2021/10/16 05:04:53;;;;;;;;;;;15.10;44.30;;;;;;4358674;32;19962;-39
2021/10/16 05:07:19;;;;;;;;;;;15.50;43.70;;;;;;4358760;32;19974;-38
2021/10/16 05:09:46;;;;;;;;;;;15.90;43.30;;;;;;4358321;32;20087;-39
2021/10/16 05:12:13;;;;;;;;;;;16.20;42.60;;;;;;4358719;32;19989;-40
2021/10/16 05:14:39;;;;;;;;;;;16.50;41.60;;;;;;4358872;32;19962;-41
2021/10/16 05:17:05;;;;;;;;;;;16.80;41.00;;;;;;4358313;32;20481;-39
2021/10/16 05:19:31;;;;;;;;;;;17.10;40.90;;;;;;4344918;32;20035;-40
2021/10/16 05:21:57;;;;;;;;;;;17.30;40.50;;;;;;4358492;32;19962;-39
2021/10/16 05:24:23;;;;;;;;;;;17.60;40.20;;;;;;4358448;32;20003;-38
2021/10/16 05:26:50;;;;;;;;;;;17.80;40.00;;;;;;4358707;32;20406;-39
2021/10/16 05:29:16;;;;;;;;;;;18.10;39.60;;;;;;4358188;32;19962;-38
2021/10/16 05:31:42;;;;;;;;;;;18.30;39.00;;;;;;4344809;32;19962;-38
2021/10/16 05:34:08;;;;;;;;;;;18.50;38.60;;;;;;4357856;32;19958;-39
2021/10/16 05:36:34;;;;;;;;;;;18.80;38.20;;;;;;4358145;32;19973;-38
2021/10/16 05:39:01;;;;;;;;;;;18.90;37.30;;;;;;4358270;32;19958;-38
2021/10/16 05:41:28;;;;;;;;;;;19.00;36.80;;;;;;4360870;32;20037;-38
2021/10/16 05:43:54;;;;;;;;;;;19.00;36.50;;;;;;4360556;32;20055;-38
2021/10/16 05:46:20;;;;;;;;;;;18.80;35.70;;;;;;4368882;32;19962;-38
2021/10/16 05:48:47;;;;;;;;;;;18.70;36.00;;;;;;4375665;32;20358;-39
2021/10/16 05:51:13;;;;;;;;;;;18.60;35.90;;;;;;4375660;32;19997;-39
2021/10/16 05:53:39;;;;;;;;;;;18.60;35.60;;;;;;4375221;32;19973;-38
2021/10/16 05:56:05;;;;;;;;;;;18.50;35.50;;;;;;4361859;32;19980;-38
2021/10/16 05:58:32;;;;;;;;;;;18.40;35.20;;;;;;4375520;32;20451;-38
2021/10/16 06:00:58;;;;;;;;;;;18.30;35.10;;;;;;4375368;32;19950;-39
2021/10/16 06:03:24;;;;;;;;;;;18.20;35.50;;;;;;4375309;32;20428;-38
2021/10/16 06:05:50;;;;;;;;;;;18.20;35.30;;;;;;4375163;32;20512;-38
2021/10/16 06:08:16;;;;;;;;;;;18.20;35.40;;;;;;4375278;32;19966;-38
2021/10/16 06:10:43;;;;;;;;;;;18.10;35.50;;;;;;4375557;32;19965;-39
2021/10/16 06:13:09;;;;;;;;;;;18.00;35.40;;;;;;4349093;32;19955;-38
2021/10/16 06:15:35;;;;;;;;;;;17.90;35.30;;;;;;4362020;32;19973;-38
2021/10/16 06:18:04;;;;;;;;;;;17.90;34.70;;;;;;4343178;33;19975;-38
2021/10/16 06:20:30;;;;;;;;;;;17.80;34.70;;;;;;4343132;33;19978;-38
2021/10/16 06:22:57;;;;;;;;;;;17.80;34.70;;;;;;4343168;33;20102;-37
2021/10/16 06:25:23;;;;;;;;;;;17.80;34.00;;;;;;4343286;33;19981;-38
2021/10/16 06:27:49;;;;;;;;;;;17.90;34.20;;;;;;4343261;33;19970;-38
2021/10/16 06:30:15;;;;;;;;;;;17.90;34.40;;;;;;4343421;33;19970;-37
2021/10/16 06:32:42;;;;;;;;;;;18.00;34.20;;;;;;4343029;33;20053;-37
2021/10/16 06:35:08;;;;;;;;;;;18.00;33.40;;;;;;4342803;33;20078;-38
2021/10/16 06:37:34;;;;;;;;;;;18.00;33.50;;;;;;4343106;33;20438;-38
2021/10/16 06:40:01;;;;;;;;;;;18.10;33.20;;;;;;4342993;33;19955;-38
2021/10/16 06:42:27;;;;;;;;;;;18.10;32.80;;;;;;4343308;33;19981;-38
2021/10/16 06:44:53;;;;;;;;;;;18.10;32.90;;;;;;4330862;33;19971;-39
2021/10/16 06:47:19;;;;;;;;;;;18.10;32.90;;;;;;4316557;33;19971;-38
2021/10/16 06:49:46;;;;;;;;;;;18.10;32.80;;;;;;4328043;33;20060;-37
2021/10/16 06:52:12;;;;;;;;;;;18.00;32.60;;;;;;4328057;33;20403;-38
2021/10/16 06:54:38;;;;;;;;;;;18.00;32.70;;;;;;4333192;32;19990;-38
2021/10/16 06:57:04;;;;;;;;;;;18.10;32.50;;;;;;4360016;32;20551;-38
2021/10/16 06:59:31;;;;;;;;;;;18.10;32.30;;;;;;4359647;32;19959;-38
2021/10/16 07:01:57;;;;;;;;;;;18.20;32.30;;;;;;4359779;32;19985;-38
2021/10/16 07:04:23;;;;;;;;;;;18.20;32.30;;;;;;4359906;32;19974;-38
2021/10/16 07:06:49;;;;;;;;;;;18.20;31.90;;;;;;4359867;32;19971;-38
2021/10/16 07:09:15;;;;;;;;;;;18.20;31.80;;;;;;4346393;32;19969;-38
2021/10/16 07:11:42;;;;;;;;;;;18.20;32.20;;;;;;4359971;32;19990;-38
2021/10/16 07:14:08;;;;;;;;;;;18.30;32.30;;;;;;4360512;32;20063;-38
2021/10/16 07:16:35;;;;;;;;;;;18.40;32.60;;;;;;4360190;32;19962;-38
2021/10/16 07:19:01;;;;;;;;;;;18.40;32.80;;;;;;4360162;32;19951;-39
2021/10/16 07:21:27;;;;;;;;;;;18.40;33.00;;;;;;4359783;32;19961;-37
2021/10/16 07:23:54;;;;;;;;;;;18.50;33.10;;;;;;4359923;32;20436;-38
2021/10/16 07:26:20;;;;;;;;;;;18.60;33.20;;;;;;4359395;32;20423;-40
2021/10/16 07:28:46;;;;;;;;;;;18.60;33.10;;;;;;4345699;32;19977;-37
2021/10/16 07:31:13;;;;;;;;;;;18.70;33.20;;;;;;4360024;32;19973;-38
2021/10/16 07:33:39;;;;;;;;;;;18.80;33.30;;;;;;4359780;32;20449;-38
2021/10/16 07:36:05;;;;;;;;;;;18.80;32.90;;;;;;4359322;32;20433;-38
2021/10/16 07:38:31;;;;;;;;;;;18.80;33.20;;;;;;4359375;32;20077;-38
2021/10/16 07:40:57;;;;;;;;;;;18.90;32.90;;;;;;4359704;32;19970;-38
2021/10/16 07:43:24;;;;;;;;;;;18.90;32.70;;;;;;4359597;32;19962;-39
2021/10/16 07:45:50;;;;;;;;;;;18.90;32.00;;;;;;4364294;32;19985;-39
2021/10/16 07:48:16;;;;;;;;;;;18.90;32.00;;;;;;4374368;32;20058;-39
2021/10/16 07:50:42;;;;;;;;;;;18.90;32.10;;;;;;4374011;32;20463;-39
2021/10/16 07:53:09;;;;;;;;;;;19.00;31.90;;;;;;4374363;32;19969;-39
2021/10/16 07:55:35;;;;;;;;;;;19.10;31.60;;;;;;4373667;32;20047;-38
2021/10/16 07:58:01;;;;;;;;;;;19.30;31.40;;;;;;4373945;32;19969;-37
2021/10/16 08:00:27;;;;;;;;;;;19.50;31.10;;;;;;4374018;32;19958;-38
2021/10/16 08:02:53;;;;;;;;;;;19.80;30.00;;;;;;4373841;32;20042;-39
2021/10/16 08:05:20;;;;;;;;;;;19.90;29.60;;;;;;4373920;32;19966;-38
2021/10/16 08:07:46;;;;;;;;;;;20.00;29.50;;;;;;4359915;32;20008;-38
2021/10/16 08:10:12;;;;;;;;;;;19.90;29.60;;;;;;4374110;32;20403;-38
2021/10/16 08:12:39;;;;;;;;;;;19.90;30.60;;;;;;4359815;32;20511;-39
2021/10/16 08:15:06;;;;;;;;;;;20.20;31.70;;;;;;4359737;32;19982;-38
2021/10/16 08:17:32;;;;;;;;;;;20.70;31.60;;;;;;4359712;32;19985;-38
2021/10/16 08:19:58;;;;;;;;;;;21.10;31.30;;;;;;4373842;32;19958;-39
2021/10/16 08:22:28;;;;;;;;;;;21.50;30.80;;;;;;4359952;32;19988;-39
2021/10/16 08:24:55;;;;;;;;;;;21.80;30.70;;;;;;4373945;32;20560;-39
2021/10/16 08:27:21;;;;;;;;;;;22.10;30.00;;;;;;4373835;32;19966;-38
2021/10/16 08:29:48;;;;;;;;;;;22.30;29.80;;;;;;4373751;32;19972;-37
2021/10/16 08:32:16;;;;;;;;;;;22.60;29.50;;;;;;4373639;32;19973;-37
2021/10/16 08:34:42;;;;;;;;;;;22.80;29.30;;;;;;4373716;32;20438;-37
2021/10/16 08:37:08;;;;;;;;;;;23.00;29.10;;;;;;4374003;32;20062;-38
2021/10/16 08:39:35;;;;;;;;;;;23.20;28.80;;;;;;4359606;32;19990;-38
2021/10/16 08:42:01;;;;;;;;;;;23.40;28.50;;;;;;4359952;32;19969;-38
2021/10/16 08:44:27;;;;;;;;;;;23.50;28.30;;;;;;4374070;32;19974;-38
2021/10/16 08:46:56;;;;;;;;;;;23.50;28.30;;;;;;4361501;32;19977;-38
2021/10/16 08:49:22;;;;;;;;;;;23.60;28.20;;;;;;4358797;32;19966;-38
2021/10/16 08:51:48;;;;;;;;;;;23.50;28.00;;;;;;4344855;32;19974;-37
2021/10/16 08:54:14;;;;;;;;;;;23.40;28.10;;;;;;4358622;32;20411;-38
2021/10/16 08:56:41;;;;;;;;;;;23.40;28.20;;;;;;4358691;32;20395;-39
2021/10/16 08:59:07;;;;;;;;;;;23.50;28.20;;;;;;4358293;32;19995;-39
2021/10/16 09:01:33;;;;;;;;;;;23.50;28.10;;;;;;4358321;32;19998;-39
2021/10/16 09:04:00;;;;;;;;;;;23.50;28.00;;;;;;4344615;32;20051;-39
2021/10/16 09:06:32;;;;;;;;;;;23.50;27.90;;;;;;4344909;32;20025;-39
2021/10/16 09:09:12;;;;;;;;;;;23.60;28.00;;;;;;4344715;32;19954;-38
2021/10/16 09:11:44;;;;;;;;;;;23.70;28.10;;;;;;4358346;32;20437;-38
2021/10/16 09:14:17;;;;;;;;;;;23.90;27.90;;;;;;4358350;32;19967;-38
2021/10/16 09:16:48;;;;;;;;;;;23.90;27.60;;;;;;4361594;32;20021;-38
2021/10/16 09:19:16;;;;;;;;;;;23.90;27.50;;;;;;4361709;32;19986;-38
2021/10/16 09:21:54;;;;;;;;;;;23.80;27.30;;;;;;4362132;32;19963;-38
2021/10/16 09:24:27;;;;;;;;;;;23.70;27.50;;;;;;4361160;32;20049;-37
2021/10/16 09:26:58;;;;;;;;;;;23.60;27.60;;;;;;4361319;32;20046;-37
2021/10/16 09:29:29;;;;;;;;;;;23.60;27.60;;;;;;4361193;32;19959;-39
2021/10/16 09:31:58;;;;;;;;;;;23.50;27.40;;;;;;4361321;32;19978;-38
2021/10/16 09:34:28;;;;;;;;;;;23.60;27.60;;;;;;4361420;32;19985;-38
2021/10/16 09:37:02;;;;;;;;;;;23.70;27.70;;;;;;4361510;32;19973;-37
2021/10/16 09:39:28;;;;;;;;;;;23.60;28.20;;;;;;4361145;32;19970;-39
2021/10/16 09:41:55;;;;;;;;;;;23.70;27.60;;;;;;4346843;32;19974;-38
2021/10/16 09:44:31;;;;;;;;;;;23.80;27.40;;;;;;4360852;32;19959;-38
2021/10/16 09:47:17;;;;;;;;;;;23.90;27.40;;;;;;4373397;32;19973;-38
2021/10/16 09:50:02;;;;;;;;;;;24.00;27.30;;;;;;4375686;32;20051;-38
2021/10/16 09:52:39;;;;;;;;;;;24.00;27.30;;;;;;4375564;32;19998;-39
2021/10/16 09:55:07;;;;;;;;;;;24.10;27.40;;;;;;4375909;32;19966;-39
2021/10/16 09:57:33;;;;;;;;;;;24.20;27.20;;;;;;4375778;32;20045;-38
2021/10/16 09:59:59;;;;;;;;;;;24.20;27.20;;;;;;4375450;32;20102;-39
2021/10/16 10:02:29;;;;;;;;;;;24.20;27.10;;;;;;4375949;32;19959;-39
2021/10/16 10:04:55;;;;;;;;;;;24.10;27.10;;;;;;4375799;32;19968;-39
2021/10/16 10:07:21;;;;;;;;;;;24.20;27.10;;;;;;4375800;32;19969;-39
2021/10/16 10:09:48;;;;;;;;;;;24.10;26.80;;;;;;4375733;32;19966;-39
2021/10/16 10:12:14;;;;;;;;;;;24.20;26.70;;;;;;4375904;32;20407;-39
2021/10/16 10:14:42;;;;;;;;;;;24.20;26.20;;;;;;4375690;32;20072;-39
2021/10/16 10:17:09;;;;;;;;;;;24.30;26.10;;;;;;4375640;32;19996;-38
2021/10/16 10:19:37;;;;;;;;;;;24.30;25.70;;;;;;4361696;32;19958;-38
2021/10/16 10:22:12;;;;;;;;;;;24.10;25.10;;;;;;4375501;32;19966;-38
2021/10/16 10:24:43;;;;;;;;;;;23.90;25.00;;;;;;4375658;32;20464;-39
2021/10/16 10:27:11;;;;;;;;;;;23.60;25.30;;;;;;4361162;32;20456;-39
2021/10/16 10:29:38;;;;;;;;;;;23.50;25.50;;;;;;4375656;32;20466;-38
2021/10/16 10:32:07;;;;;;;;;;;23.40;25.50;;;;;;4375663;32;19972;-39
2021/10/16 10:34:35;;;;;;;;;;;23.40;25.60;;;;;;4375590;32;20079;-39
2021/10/16 10:37:05;;;;;;;;;;;23.30;25.70;;;;;;4375357;32;20386;-39
2021/10/16 10:39:34;;;;;;;;;;;23.30;25.80;;;;;;4374870;32;20377;-39
2021/10/16 10:42:23;;;;;;;;;;;23.30;25.80;;;;;;4375620;32;20061;-38
2021/10/16 10:44:57;;;;;;;;;;;23.20;25.80;;;;;;4375022;32;19965;-38
2021/10/16 10:47:25;;;;;;;;;;;23.20;25.80;;;;;;4360650;32;20030;-38
2021/10/16 10:49:53;;;;;;;;;;;23.00;25.70;;;;;;4360688;32;19969;-38
2021/10/16 10:52:21;;;;;;;;;;;22.80;26.20;;;;;;4359974;32;20444;-38
2021/10/16 10:55:08;;;;;;;;;;;22.70;25.90;;;;;;4360150;32;20373;-39
2021/10/16 10:57:48;;;;;;;;;;;22.70;26.00;;;;;;4360387;32;19974;-38
2021/10/16 11:00:15;;;;;;;;;;;22.60;26.00;;;;;;4346270;32;20351;-39
2021/10/16 11:02:42;;;;;;;;;;;22.40;25.90;;;;;;4346327;32;19973;-39
2021/10/16 11:05:34;;;;;;;;;;;22.30;26.00;;;;;;4359781;32;20041;-38
2021/10/16 11:08:08;;;;;;;;;;;22.20;26.10;;;;;;4360328;32;20091;-38
2021/10/16 11:10:35;;;;;;;;;;;22.20;26.40;;;;;;4359847;32;20026;-38
2021/10/16 11:13:34;;;;;;;;;;;22.10;26.70;;;;;;4359611;32;20374;-38
2021/10/16 11:16:01;;;;;;;;;;;22.10;26.90;;;;;;4318912;33;20022;-38
2021/10/16 11:18:27;;;;;;;;;;;22.30;27.00;;;;;;4327812;33;20491;-39
2021/10/16 11:20:54;;;;;;;;;;;22.30;26.70;;;;;;4315751;33;20031;-39
2021/10/16 11:23:22;;;;;;;;;;;22.30;26.80;;;;;;4328439;33;19967;-39
2021/10/16 11:26:16;;;;;;;;;;;22.30;26.50;;;;;;4315023;33;19978;-39
2021/10/16 11:28:45;;;;;;;;;;;22.20;26.30;;;;;;4325207;33;20415;-37
2021/10/16 11:31:11;;;;;;;;;;;22.10;26.40;;;;;;4327772;33;19975;-38
2021/10/16 11:33:40;;;;;;;;;;;22.20;26.60;;;;;;4327530;33;19979;-38
2021/10/16 11:36:07;;;;;;;;;;;22.20;26.80;;;;;;4315106;33;19993;-39
2021/10/16 11:38:38;;;;;;;;;;;22.10;27.00;;;;;;4326524;33;20014;-40
2021/10/16 11:41:05;;;;;;;;;;;22.10;26.80;;;;;;4326938;33;19975;-38
2021/10/16 11:43:32;;;;;;;;;;;22.10;26.90;;;;;;4327417;33;20046;-40
2021/10/16 11:45:58;;;;;;;;;;;22.10;26.80;;;;;;4335661;32;20044;-39
2021/10/16 11:48:25;;;;;;;;;;;22.20;26.80;;;;;;4374174;32;20016;-38
2021/10/16 11:50:56;;;;;;;;;;;22.20;26.80;;;;;;4374579;32;19968;-39
2021/10/16 11:53:27;;;;;;;;;;;22.30;26.80;;;;;;4374476;32;19973;-38
2021/10/16 11:56:07;;;;;;;;;;;22.30;26.80;;;;;;4374729;32;19977;-38
2021/10/16 11:58:33;;;;;;;;;;;22.30;26.70;;;;;;4374038;32;19981;-38
2021/10/16 12:01:04;;;;;;;;;;;22.20;26.80;;;;;;4374026;32;19969;-39
2021/10/16 12:03:45;;;;;;;;;;;22.20;26.80;;;;;;4374400;32;19984;-38
2021/10/16 12:06:16;;;;;;;;;;;22.10;26.90;;;;;;4374390;32;20472;-37
2021/10/16 12:08:43;;;;;;;;;;;21.90;26.80;;;;;;4373850;32;20362;-39
2021/10/16 12:11:22;;;;;;;;;;;21.80;27.10;;;;;;4373602;32;19986;-38
2021/10/16 12:14:02;;;;;;;;;;;21.70;27.20;;;;;;4374092;32;19969;-38
2021/10/16 12:16:39;;;;;;;;;;;21.60;27.10;;;;;;4373905;32;19986;-38
2021/10/16 12:19:14;;;;;;;;;;;21.50;27.10;;;;;;4373476;32;19958;-38
2021/10/16 12:21:42;;;;;;;;;;;21.50;27.10;;;;;;4373673;32;19966;-38
2021/10/16 12:24:11;;;;;;;;;;;21.40;27.20;;;;;;4373769;32;19969;-38
2021/10/16 12:26:38;;;;;;;;;;;21.40;27.40;;;;;;4374039;32;19977;-38
2021/10/16 12:29:06;;;;;;;;;;;21.40;27.60;;;;;;4373579;32;20425;-39
2021/10/16 12:31:49;;;;;;;;;;;21.40;27.70;;;;;;4373957;32;19965;-38
2021/10/16 12:34:29;;;;;;;;;;;21.40;27.70;;;;;;4373531;32;19970;-38
2021/10/16 12:36:57;;;;;;;;;;;21.30;27.50;;;;;;4360050;32;20055;-38
2021/10/16 12:39:31;;;;;;;;;;;21.30;27.60;;;;;;4373404;32;19966;-38
2021/10/16 12:41:58;;;;;;;;;;;21.20;27.60;;;;;;4360036;32;20176;-38
2021/10/16 12:44:28;;;;;;;;;;;21.20;27.70;;;;;;4373606;32;20568;-39
2021/10/16 12:47:11;;;;;;;;;;;21.10;27.70;;;;;;4373755;32;19962;-39
2021/10/16 12:49:48;;;;;;;;;;;21.00;27.80;;;;;;4373037;32;19961;-38
2021/10/16 12:52:43;;;;;;;;;;;20.80;27.70;;;;;;4373607;32;19964;-38
2021/10/16 12:55:15;;;;;;;;;;;20.80;27.90;;;;;;4373725;32;19962;-38
2021/10/16 12:58:05;;;;;;;;;;;20.70;28.10;;;;;;4373205;32;19982;-38
2021/10/16 13:00:36;;;;;;;;;;;20.60;28.20;;;;;;4373374;32;20048;-38
2021/10/16 13:03:05;;;;;;;;;;;20.50;28.40;;;;;;4373483;32;19970;-38
2021/10/16 13:05:32;;;;;;;;;;;20.50;28.50;;;;;;4373180;32;19985;-38
2021/10/16 13:07:58;;;;;;;;;;;20.40;28.70;;;;;;4373481;32;20418;-39
2021/10/16 13:10:24;;;;;;;;;;;20.30;28.90;;;;;;4373519;32;19966;-39
2021/10/16 13:12:51;;;;;;;;;;;20.10;29.20;;;;;;4359306;32;20066;-39
2021/10/16 13:15:17;;;;;;;;;;;19.90;29.40;;;;;;4373171;32;19963;-38
2021/10/16 13:17:43;;;;;;;;;;;19.70;29.40;;;;;;4373460;32;19970;-38
2021/10/16 13:20:10;;;;;;;;;;;19.60;29.40;;;;;;4373385;32;19965;-37
2021/10/16 13:22:36;;;;;;;;;;;19.40;29.50;;;;;;4373386;32;19966;-37
2021/10/16 13:25:04;;;;;;;;;;;19.20;29.70;;;;;;4373513;32;19977;-38
2021/10/16 13:27:30;;;;;;;;;;;19.10;30.00;;;;;;4373541;32;20435;-37
2021/10/16 13:29:56;;;;;;;;;;;18.90;30.40;;;;;;4373239;32;19966;-38
2021/10/16 13:32:22;;;;;;;;;;;18.80;30.50;;;;;;4359166;32;20440;-38
2021/10/16 13:34:49;;;;;;;;;;;18.70;30.60;;;;;;4373216;32;20403;-38
2021/10/16 13:37:15;;;;;;;;;;;18.60;30.60;;;;;;4372856;32;19969;-38
2021/10/16 13:39:42;;;;;;;;;;;18.50;30.70;;;;;;4373206;32;19962;-38
2021/10/16 13:42:08;;;;;;;;;;;18.30;30.80;;;;;;4372710;32;19974;-38
2021/10/16 13:44:34;;;;;;;;;;;18.20;30.80;;;;;;4372510;32;20041;-37
2021/10/16 13:47:00;;;;;;;;;;;18.10;31.10;;;;;;4360572;32;20068;-38
2021/10/16 13:49:26;;;;;;;;;;;18.00;31.20;;;;;;4358191;32;19962;-39
2021/10/16 13:51:53;;;;;;;;;;;17.80;31.50;;;;;;4358459;32;19982;-37
2021/10/16 13:54:19;;;;;;;;;;;17.60;31.70;;;;;;4358063;32;19990;-37
2021/10/16 13:56:46;;;;;;;;;;;17.50;32.10;;;;;;4358098;32;20444;-38
2021/10/16 13:59:12;;;;;;;;;;;17.40;32.40;;;;;;4358072;32;19958;-38
2021/10/16 14:01:39;;;;;;;;;;;17.30;32.60;;;;;;4359800;32;20033;-38
2021/10/16 14:04:05;;;;;;;;;;;17.20;32.80;;;;;;4347031;32;19968;-39
2021/10/16 14:06:31;;;;;;;;;;;17.10;32.90;;;;;;4361231;32;19977;-38
2021/10/16 14:08:57;;;;;;;;;;;16.90;33.70;;;;;;4360361;32;19959;-38
2021/10/16 14:11:23;;;;;;;;;;;16.90;33.20;;;;;;4360346;32;20489;-39
2021/10/16 14:13:49;;;;;;;;;;;16.70;33.50;;;;;;4346398;32;20060;-39
2021/10/16 14:16:16;;;;;;;;;;;16.60;33.60;;;;;;4360674;32;19970;-40
2021/10/16 14:18:44;;;;;;;;;;;16.50;33.70;;;;;;4360449;32;20440;-39
2021/10/16 14:21:11;;;;;;;;;;;16.40;33.70;;;;;;4360333;32;19982;-38